createdAt,value
2023-02-27T01:01:03.129Z,4.04
2023-02-27T01:02:02.891Z,4.19
2023-02-27T01:03:03.111Z,4.32
2023-02-27T01:04:02.806Z,4.35
2023-02-27T01:05:02.790Z,4.34
2023-02-27T01:06:02.821Z,4.30
2023-02-27T01:07:02.794Z,4.19
2023-02-27T01:08:02.811Z,4.25
2023-02-27T01:09:02.736Z,4.29
2023-02-27T01:10:02.730Z,4.42
2023-02-27T01:11:02.742Z,4.37
2023-02-27T01:20:44.148Z,4.08
2023-02-27T01:21:44.201Z,4.13
2023-02-27T01:41:41.182Z,4.10
2023-02-27T01:47:04.381Z,3.74
2023-02-27T01:51:43.611Z,3.85
2023-02-27T01:52:43.689Z,3.95
2023-02-27T02:26:44.126Z,4.38
2023-02-27T02:27:44.117Z,4.41
2023-02-27T02:28:44.324Z,4.50
2023-02-27T02:29:44.166Z,4.55
2023-02-27T02:30:44.272Z,4.38
2023-02-27T02:31:44.448Z,4.35
2023-02-27T02:32:44.283Z,4.36
2023-02-27T02:33:44.305Z,4.31
2023-02-27T02:34:44.364Z,4.26
2023-02-27T02:35:44.412Z,4.21
2023-02-27T02:36:44.387Z,4.16
2023-02-27T02:37:44.417Z,4.20
2023-02-27T02:38:44.514Z,4.27
2023-02-27T03:01:50.078Z,4.03
2023-02-27T03:02:50.282Z,4.20
2023-02-27T03:03:49.440Z,4.03
2023-02-27T03:06:10.503Z,3.73
2023-02-27T03:07:09.928Z,4.05
2023-02-27T03:11:55.848Z,3.87
2023-02-27T03:33:54.939Z,4.29
2023-02-27T05:33:52.299Z,3.66
2023-02-27T05:35:50.368Z,3.66
2023-02-27T05:36:50.560Z,3.76
2023-02-27T05:37:50.304Z,3.71
2023-02-27T05:38:50.256Z,3.78
2023-02-27T05:39:50.266Z,3.78
2023-02-27T05:42:27.980Z,3.67
2023-02-27T05:43:28.122Z,3.94
2023-02-27T05:44:27.884Z,3.99
2023-02-27T05:45:27.874Z,4.05
2023-02-27T05:46:27.900Z,4.07
2023-02-27T05:47:27.845Z,4.09
2023-02-27T05:48:27.853Z,4.12
2023-02-27T05:49:27.865Z,4.16
2023-02-27T05:50:27.867Z,4.20
2023-02-27T05:51:28.174Z,4.21
2023-02-27T05:52:27.819Z,4.26
2023-02-27T05:53:27.808Z,4.31
2023-02-27T05:54:27.863Z,4.19
2023-02-27T05:55:27.797Z,4.27
2023-02-27T05:56:28.138Z,4.19
2023-02-27T05:57:27.781Z,4.03
2023-02-27T05:58:27.757Z,3.97
2023-02-27T05:59:27.772Z,3.94
2023-02-27T06:00:27.775Z,4.02
2023-02-27T06:02:28.016Z,4.12
2023-02-27T06:03:28.049Z,4.19
2023-02-27T06:04:28.685Z,4.17
2023-02-27T06:05:28.000Z,4.17
2023-02-27T06:06:28.159Z,4.16
2023-02-27T06:07:27.812Z,4.17
2023-02-27T06:08:28.820Z,4.11
2023-02-27T06:09:27.787Z,4.14
2023-02-27T06:10:27.757Z,4.13
2023-02-27T06:11:27.814Z,4.20
2023-02-27T06:12:27.804Z,4.21
2023-02-27T06:13:27.784Z,4.20
2023-02-27T06:14:27.755Z,4.15
2023-02-27T06:15:27.815Z,4.24
2023-02-27T06:16:28.117Z,4.29
2023-02-27T06:17:27.971Z,4.12
2023-02-27T06:18:28.022Z,4.17
2023-02-27T06:19:28.087Z,4.23
2023-02-27T06:20:28.136Z,4.22
2023-02-27T06:21:28.155Z,4.09
2023-02-27T06:22:28.325Z,4.13
2023-02-27T06:23:28.311Z,4.16
2023-02-27T06:24:28.306Z,4.22
2023-02-27T06:25:28.400Z,4.35
2023-02-27T06:26:28.702Z,4.40
2023-02-27T06:27:28.763Z,4.45
2023-02-27T06:28:28.474Z,4.52
2023-02-27T06:29:28.462Z,4.55
2023-02-27T06:30:28.553Z,4.52
2023-02-27T06:31:28.658Z,4.54
2023-02-27T06:32:29.109Z,4.58
2023-02-27T06:33:28.676Z,4.51
2023-02-27T06:34:28.851Z,4.45
2023-02-27T06:35:28.804Z,4.46
2023-02-27T06:36:30.164Z,4.54
2023-02-27T06:37:29.127Z,4.50
2023-02-27T06:38:29.020Z,4.54
2023-02-27T06:39:29.018Z,4.54
2023-02-27T06:41:29.122Z,4.55
2023-02-27T06:42:29.461Z,4.64
2023-02-27T06:43:29.058Z,4.70
2023-02-27T06:44:28.973Z,4.77
2023-02-27T06:45:29.018Z,4.67
2023-02-27T06:47:29.248Z,4.62
2023-02-27T06:48:29.299Z,4.68
2023-02-27T06:49:28.948Z,4.72
2023-02-27T06:50:29.061Z,4.73
2023-02-27T06:51:29.246Z,4.80
2023-02-27T06:52:29.075Z,4.89
2023-02-27T06:53:28.961Z,4.98
2023-02-27T06:54:28.925Z,5.05
2023-02-27T06:55:28.959Z,5.04
2023-02-27T06:56:29.106Z,5.11
2023-02-27T06:57:28.914Z,5.20
2023-02-27T06:58:28.899Z,5.23
2023-02-27T06:59:28.910Z,5.22
2023-02-27T07:00:28.882Z,5.18
2023-02-27T07:01:28.922Z,5.19
2023-02-27T07:02:28.883Z,5.15
2023-02-27T07:03:29.060Z,5.15
2023-02-27T07:04:28.981Z,5.01
2023-02-27T07:05:28.840Z,4.91
2023-02-27T07:07:35.662Z,5.06
2023-02-27T07:07:36.133Z,4.99
2023-02-27T07:08:30.055Z,5.09
2023-02-27T07:09:28.830Z,5.13
2023-02-27T07:10:28.882Z,5.10
2023-02-27T07:11:28.794Z,5.01
2023-02-27T07:12:28.811Z,4.94
2023-02-27T07:13:29.077Z,5.06
2023-02-27T07:14:28.928Z,5.15
2023-02-27T07:15:28.786Z,5.20
2023-02-27T07:16:29.106Z,5.20
2023-02-27T07:17:28.786Z,5.20
2023-02-27T07:18:28.799Z,5.20
2023-02-27T07:19:28.762Z,5.23
2023-02-27T07:20:28.782Z,5.24
2023-02-27T07:21:28.754Z,5.22
2023-02-27T07:22:28.726Z,5.31
2023-02-27T07:23:28.730Z,5.43
2023-02-27T07:24:28.753Z,5.54
2023-02-27T07:25:28.700Z,5.68
2023-02-27T07:26:29.030Z,5.78
2023-02-27T07:27:28.705Z,5.76
2023-02-27T07:28:29.167Z,5.74
2023-02-27T07:29:28.671Z,5.80
2023-02-27T07:30:28.735Z,5.94
2023-02-27T07:31:29.135Z,6.02
2023-02-27T07:32:28.687Z,6.01
2023-02-27T07:33:28.716Z,6.10
2023-02-27T07:34:28.830Z,6.13
2023-02-27T07:35:28.862Z,6.16
2023-02-27T07:36:28.993Z,6.31
2023-02-27T07:37:28.884Z,6.47
2023-02-27T07:38:29.094Z,6.63
2023-02-27T07:39:28.936Z,6.69
2023-02-27T07:40:29.009Z,6.69
2023-02-27T07:41:30.984Z,6.56
2023-02-27T07:42:29.060Z,6.62
2023-02-27T07:43:29.629Z,6.71
2023-02-27T07:44:29.079Z,6.81
2023-02-27T07:45:29.141Z,6.83
2023-02-27T07:46:29.589Z,6.83
2023-02-27T07:47:29.261Z,6.83
2023-02-27T07:48:29.245Z,6.73
2023-02-27T07:49:29.329Z,6.78
2023-02-27T07:51:50.077Z,7.19
2023-02-27T07:52:49.725Z,7.27
2023-02-27T07:53:50.856Z,7.47
2023-02-27T07:54:49.553Z,7.61
2023-02-27T07:55:49.593Z,7.49
2023-02-27T07:56:49.597Z,7.50
2023-02-27T07:57:49.594Z,7.44
2023-02-27T07:58:49.576Z,7.49
2023-02-27T07:59:49.654Z,7.52
2023-02-27T08:00:49.593Z,7.44
2023-02-27T08:01:49.562Z,7.46
2023-02-27T08:02:49.539Z,7.38
2023-02-27T08:03:49.985Z,7.21
2023-02-27T08:04:49.676Z,7.22
2023-02-27T08:05:49.485Z,7.13
2023-02-27T08:06:49.573Z,7.02
2023-02-27T08:07:49.633Z,7.07
2023-02-27T08:08:50.507Z,7.12
2023-02-27T08:09:49.475Z,7.22
2023-02-27T08:11:49.553Z,7.29
2023-02-27T08:12:49.686Z,7.05
2023-02-27T08:14:05.119Z,7.17
2023-02-27T08:14:50.396Z,7.25
2023-02-27T08:15:49.396Z,7.21
2023-02-27T08:16:49.493Z,7.10
2023-02-27T08:17:49.518Z,6.95
2023-02-27T08:18:49.535Z,6.77
2023-02-27T08:19:49.617Z,6.78
2023-02-27T08:20:49.655Z,6.88
2023-02-27T08:21:49.604Z,6.99
2023-02-27T08:22:49.694Z,7.06
2023-02-27T08:23:49.712Z,7.23
2023-02-27T08:24:49.808Z,7.51
2023-02-27T08:25:49.788Z,7.78
2023-02-27T08:26:49.814Z,8.07
2023-02-27T08:27:49.876Z,8.05
2023-02-27T08:28:49.888Z,8.26
2023-02-27T08:29:49.992Z,8.48
2023-02-27T08:30:49.988Z,8.59
2023-02-27T08:31:50.216Z,8.61
2023-02-27T08:32:50.044Z,8.52
2023-02-27T08:33:58.050Z,8.63
2023-02-27T08:34:51.555Z,8.85
2023-02-27T08:35:50.028Z,8.88
2023-02-27T08:36:50.034Z,8.99
2023-02-27T08:37:50.043Z,9.00
2023-02-27T08:38:50.337Z,8.86
2023-02-27T08:39:49.968Z,8.86
2023-02-27T08:40:49.989Z,8.92
2023-02-27T08:41:49.972Z,8.91
2023-02-27T08:42:49.978Z,8.81
2023-02-27T08:43:50.000Z,8.82
2023-02-27T08:44:50.006Z,8.74
2023-02-27T08:45:50.065Z,8.74
2023-02-27T08:46:49.936Z,8.68
2023-02-27T08:47:49.991Z,8.58
2023-02-27T08:48:49.928Z,8.52
2023-02-27T08:52:01.068Z,8.23
2023-02-27T08:52:59.664Z,8.43
2023-02-27T08:55:36.649Z,8.40
2023-02-27T08:58:35.128Z,8.66
2023-02-27T08:59:32.186Z,9.20
2023-02-27T09:02:28.283Z,9.45
2023-02-27T09:08:28.499Z,9.17
2023-02-27T09:11:28.909Z,9.28
2023-02-27T09:14:01.886Z,9.36
2023-02-27T09:14:46.633Z,9.66
2023-02-27T09:15:46.735Z,9.85
2023-02-27T09:16:46.536Z,10.04
2023-02-27T09:17:46.586Z,10.12
2023-02-27T09:18:46.818Z,10.07
2023-02-27T09:19:46.495Z,10.01
2023-02-27T09:20:46.473Z,9.88
2023-02-27T09:21:46.495Z,9.85
2023-02-27T09:28:48.176Z,8.37
2023-02-27T09:35:21.570Z,7.89
2023-02-27T09:36:22.031Z,8.13
2023-02-27T09:49:33.648Z,7.97
2023-02-27T15:11:07.097Z,6.52
2023-02-27T15:12:07.362Z,6.81
2023-02-27T15:13:07.070Z,6.85
2023-02-27T15:14:07.018Z,6.94
2023-02-27T15:15:07.097Z,6.97
2023-02-27T15:16:16.105Z,7.05
2023-02-27T15:17:08.033Z,7.10
2023-02-27T15:18:07.022Z,7.16
2023-02-27T15:19:06.972Z,7.20
2023-02-27T15:20:07.022Z,7.23
2023-02-27T15:21:06.979Z,7.29
2023-02-27T15:22:07.155Z,7.37
2023-02-27T15:23:06.933Z,7.40
2023-02-27T15:24:07.492Z,7.43
2023-02-27T15:25:06.955Z,7.45
2023-02-27T15:26:07.066Z,7.28
2023-02-27T15:27:06.969Z,7.26
2023-02-27T15:28:07.187Z,7.21
2023-02-27T15:29:06.986Z,7.12
2023-02-27T15:30:07.120Z,7.00
2023-02-27T15:31:07.076Z,7.05
2023-02-27T15:32:07.027Z,7.10
2023-02-27T15:33:07.105Z,6.93
2023-02-27T15:34:07.127Z,7.04
2023-02-27T15:35:07.143Z,7.01
2023-02-27T15:36:07.161Z,7.07
2023-02-27T15:37:07.203Z,7.07
2023-02-27T15:38:07.203Z,7.14
2023-02-27T15:39:07.209Z,7.20
2023-02-27T15:40:07.273Z,7.21
2023-02-27T22:41:18.387Z,4.47
2023-02-27T22:42:18.016Z,4.71
2023-02-27T22:44:17.825Z,4.78
2023-02-27T22:46:17.888Z,4.76
2023-02-27T22:47:18.013Z,4.82
2023-02-27T22:48:17.772Z,4.94
2023-02-27T22:49:17.737Z,4.89
2023-02-27T22:50:17.706Z,4.87
2023-02-27T22:51:17.725Z,4.77
2023-02-27T22:52:17.678Z,4.69
2023-02-27T22:53:17.681Z,4.77
2023-02-27T22:54:17.725Z,4.86
2023-02-27T22:55:17.714Z,4.92
2023-02-27T22:57:17.709Z,4.82
2023-02-27T23:00:37.755Z,4.88
2023-02-27T23:04:18.602Z,4.90
2023-02-27T23:05:18.382Z,4.96
2023-02-27T23:06:18.556Z,4.95
2023-02-27T23:08:42.351Z,4.86
2023-02-27T23:09:41.870Z,4.99
2023-02-27T23:13:00.618Z,5.02
